METAR Data
IDs: Format: Raw Decoded Include TAF

Data at: 0318 UTC 25 Feb 2021

LIMZ 250250Z AUTO 23004KT 9999 NCD 04/01 Q1033